Western King — CY7367 — position and weather

sailwx.info

Track history (hours):
 
Tides and Currents Weather Stations Pressure Air Temp Water Temp Dewpoint Dewpoint Depression Visibility Wind Speed Wind Dir Waves Ship Positions

Western King

Last reported at 2017-Jan-13 23:33 UTC. Time now 2017-Jan-17 13:05 UTC.
Position N 49°56' W 125°09'.

Length 23 m; draft 3.8 m.

Type: Fishing. MMSI: 316003779.

Date/timePositionNaut miles runAvg speedWind from/ knotsBaromVisibWave heightAir tempDewpointWater temp
2017-Jan-13 23:33N 49°56' W 125°09'9 8.8
2017-Jan-13 22:33N 49°50' W 124°59'9 8.7
2017-Jan-13 21:33N 49°44' W 124°50'9 8.9
2017-Jan-13 20:33N 49°37' W 124°41'28 2.7
2017-Jan-13 10:06N 49°19' W 124°07'23 9.0
2017-Jan-13 07:31N 49°10' W 123°34'8 8.6
2017-Jan-13 06:33N 49°07' W 123°23'7 3.7
2017-Jan-13 04:32N 49°07' W 123°12'0 0.0
2017-Jan-13 03:33N 49°07' W 123°12'0 0.0
2017-Jan-13 02:31N 49°07' W 123°12'0 0.0
2017-Jan-13 01:23N 49°07' W 123°12'0 0.0
2017-Jan-13 00:33N 49°07' W 123°12'0 0.0
2017-Jan-12 23:33N 49°07' W 123°12'0 0.2
2017-Jan-12 22:33N 49°07' W 123°11'0 0.0
2017-Jan-12 21:33N 49°07' W 123°11'0 0.0
2017-Jan-12 20:33N 49°07' W 123°11'0 0.0
2017-Jan-12 19:33N 49°07' W 123°11'0 0.0
2017-Jan-12 18:33N 49°07' W 123°11'0 0.0
2017-Jan-12 17:33N 49°07' W 123°11'0 0.0
2017-Jan-12 16:33N 49°07' W 123°11'0 0.0
2017-Jan-12 15:33N 49°07' W 123°11'0 0.0
2017-Jan-12 14:33N 49°07' W 123°11'0 0.0
2017-Jan-12 13:33N 49°07' W 123°11'0 0.0
2017-Jan-12 12:33N 49°07' W 123°11'0 0.0
2017-Jan-12 11:33N 49°07' W 123°11'4 3.9
2017-Jan-12 10:33N 49°07' W 123°17'7 7.2
2017-Jan-12 09:33N 49°08' W 123°28'8 7.8
2017-Jan-12 08:33N 49°10' W 123°39'8 7.8
2017-Jan-12 07:34N 49°12' W 123°51'3 3.4
2017-Jan-12 06:33N 49°09' W 123°51'0 0.3
2017-Jan-12 05:33N 49°09' W 123°51'0 0.3
2017-Jan-12 04:34N 49°09' W 123°52'0 0.2
2017-Jan-12 03:30N 49°09' W 123°52'0 0.2
2017-Jan-12 02:32N 49°09' W 123°52'0 0.4
2017-Jan-12 01:29N 49°09' W 123°52'0 0.2
2017-Jan-12 00:33N 49°10' W 123°52'7 5.3
2017-Jan-11 23:19N 49°11' W 123°42'7 8.8
2017-Jan-11 22:29N 49°09' W 123°32'9 9.1
2017-Jan-11 21:33N 49°06' W 123°19'6 6.0
2017-Jan-11 20:33N 49°07' W 123°10'0 0.0
2017-Jan-11 19:33N 49°07' W 123°10'1 0.9
2017-Jan-11 18:33N 49°07' W 123°11'0 0.0
2017-Jan-11 17:32N 49°07' W 123°11'0 0.0
2017-Jan-11 16:33N 49°07' W 123°11'0 0.0
2017-Jan-11 15:33N 49°07' W 123°11'0 0.0
2017-Jan-11 14:33N 49°07' W 123°11'0 0.0
2017-Jan-11 13:33N 49°07' W 123°11'0 0.0
2017-Jan-11 12:33N 49°07' W 123°11'0 0.0
2017-Jan-11 11:33N 49°07' W 123°11'0 0.0
2017-Jan-11 10:33N 49°07' W 123°11'0 0.0
2017-Jan-11 09:33N 49°07' W 123°11'0 0.0
2017-Jan-11 08:33N 49°07' W 123°11'0 0.0
2017-Jan-11 07:33N 49°07' W 123°11'0 0.0
2017-Jan-11 06:33N 49°07' W 123°11'0 0.0
2017-Jan-11 05:33N 49°07' W 123°11'0 0.0
2017-Jan-11 04:33N 49°07' W 123°11'0 0.0
2017-Jan-11 03:33N 49°07' W 123°11'0 0.2
2017-Jan-11 02:33N 49°07' W 123°12'0 0.0
2017-Jan-11 01:34N 49°07' W 123°12'0 0.0
2017-Jan-11 00:34N 49°07' W 123°12'0 0.0
2017-Jan-10 23:34N 49°07' W 123°12'0 0.0
2017-Jan-10 22:34N 49°07' W 123°12'0 0.2
2017-Jan-10 21:34N 49°07' W 123°11'0 0.0
2017-Jan-10 20:33N 49°07' W 123°11'0 0.0
2017-Jan-10 19:32N 49°07' W 123°11'0 0.0
2017-Jan-10 18:33N 49°07' W 123°11'0 0.0
2017-Jan-10 17:32N 49°07' W 123°11'0 0.0
2017-Jan-10 16:33N 49°07' W 123°11'0 0.0
2017-Jan-10 15:33N 49°07' W 123°11'0 0.0
2017-Jan-10 14:33N 49°07' W 123°11'0 0.0
2017-Jan-10 13:33N 49°07' W 123°11'0 0.0
2017-Jan-10 12:33N 49°07' W 123°11'3 3.2
2017-Jan-10 11:33N 49°07' W 123°16'7 7.4
2017-Jan-10 10:33N 49°09' W 123°27'7 7.5
2017-Jan-10 09:33N 49°10' W 123°38'8 7.6
2017-Jan-10 08:33N 49°12' W 123°50'4 3.5
2017-Jan-10 07:32N 49°09' W 123°51'0 0.4
2017-Jan-10 06:31N 49°09' W 123°52'0 0.1
2017-Jan-10 05:32N 49°09' W 123°52'4 4.1
2017-Jan-10 04:33N 49°12' W 123°48'9 9.1
2017-Jan-10 03:32N 49°09' W 123°35'9 9.0
2017-Jan-10 02:33N 49°07' W 123°22'8 7.6
2017-Jan-10 01:32N 49°07' W 123°10'1 1.0
2017-Jan-10 00:31N 49°07' W 123°12'0 0.0
2017-Jan-09 23:31N 49°07' W 123°12'0 0.0
2017-Jan-09 22:33N 49°07' W 123°12'0 0.0
2017-Jan-09 21:33N 49°07' W 123°12'0 0.1
2017-Jan-09 20:33N 49°07' W 123°11'0 0.0
2017-Jan-09 19:34N 49°07' W 123°11'0 0.0
2017-Jan-09 16:33N 49°07' W 123°11'0 0.0
2017-Jan-09 15:33N 49°07' W 123°11'0 0.0
2017-Jan-09 14:33N 49°07' W 123°11'5 5.5
2017-Jan-09 13:33N 49°06' W 123°20'8 8.3
2017-Jan-09 12:32N 49°09' W 123°32'8 7.6
2017-Jan-09 11:29N 49°11' W 123°44'6 6.0
2017-Jan-09 10:30N 49°10' W 123°53'1 1.2
2017-Jan-09 09:33N 49°09' W 123°52'0 0.2
2017-Jan-09 08:24N 49°09' W 123°51'0 0.3
2017-Jan-09 07:29N 49°09' W 123°51'0 0.2
2017-Jan-09 06:33N 49°09' W 123°51'1 0.6
2017-Jan-09 05:30N 49°09' W 123°52'0 0.4
2017-Jan-09 04:28N 49°09' W 123°52'0 0.3
2017-Jan-09 03:32N 49°09' W 123°51'0 0.2
2017-Jan-09 02:31N 49°09' W 123°51'0 0.4
2017-Jan-09 01:33N 49°09' W 123°51'5 4.6
2017-Jan-09 00:33N 49°13' W 123°55'2 2.2
2017-Jan-08 23:33N 49°13' W 123°52'3 2.7
2017-Jan-08 22:32N 49°12' W 123°48'1 0.8
2017-Jan-08 21:33N 49°12' W 123°48'4 4.2
2017-Jan-08 20:33N 49°10' W 123°54'1 0.1
2017-Jan-08 01:14N 49°10' W 123°56'0 0.0
2017-Jan-08 00:17N 49°10' W 123°56'0 0.0
2017-Jan-07 23:25N 49°10' W 123°56'0 0.0
2017-Jan-07 22:31N 49°10' W 123°56'0 0.0
2017-Jan-07 21:05N 49°10' W 123°56'0 0.0
2017-Jan-07 19:31N 49°10' W 123°56'0 0.0
2017-Jan-07 18:14N 49°10' W 123°56'0 0.0
2017-Jan-07 17:30N 49°10' W 123°56'0 0.0
2017-Jan-07 16:33N 49°10' W 123°56'0 0.0
2017-Jan-07 15:29N 49°10' W 123°56'0 0.0
2017-Jan-07 14:31N 49°10' W 123°56'0 0.0
2017-Jan-07 13:29N 49°10' W 123°56'0 0.0
2017-Jan-07 12:33N 49°10' W 123°56'0 0.0
2017-Jan-07 11:32N 49°10' W 123°56'0 0.0
2017-Jan-07 10:20N 49°10' W 123°56'0 0.0
2017-Jan-07 09:32N 49°10' W 123°56'0 0.0
2017-Jan-07 08:23N 49°10' W 123°56'0 0.0
2017-Jan-07 07:33N 49°10' W 123°56'0 0.0
2017-Jan-07 06:33N 49°10' W 123°56'0 0.0
2017-Jan-07 05:28N 49°10' W 123°56'0 0.0
2017-Jan-07 04:13N 49°10' W 123°56'0 0.0
2017-Jan-07 03:31N 49°10' W 123°56'0 0.0
2017-Jan-07 02:32N 49°10' W 123°56'0 0.0
2017-Jan-07 00:32N 49°10' W 123°56'0 0.0
2017-Jan-06 23:16N 49°10' W 123°56'0 0.0
2017-Jan-06 22:16N 49°10' W 123°56'0 0.0
2017-Jan-06 21:23N 49°10' W 123°56'0 0.0
2017-Jan-06 20:30N 49°10' W 123°56'0 0.0
2017-Jan-06 19:31N 49°10' W 123°56'0 0.0
2017-Jan-06 18:33N 49°10' W 123°56'0 0.0
2017-Jan-06 17:33N 49°10' W 123°56'0 0.0
2017-Jan-06 16:32N 49°10' W 123°56'0 0.0
2017-Jan-06 15:32N 49°10' W 123°56'0 0.0
2017-Jan-06 14:32N 49°10' W 123°56'0 0.0
2017-Jan-06 13:32N 49°10' W 123°56'0 0.0
2017-Jan-06 12:33N 49°10' W 123°56'0 0.0
2017-Jan-06 11:33N 49°10' W 123°56'0 0.0
2017-Jan-06 10:33N 49°10' W 123°56'0 0.0
2017-Jan-06 09:33N 49°10' W 123°56'0 0.0
2017-Jan-06 08:32N 49°10' W 123°56'0 0.0
2017-Jan-06 07:33N 49°10' W 123°56'0 0.0
2017-Jan-06 06:33N 49°10' W 123°56'0 0.0
2017-Jan-06 05:33N 49°10' W 123°56'0 0.0
2017-Jan-06 04:33N 49°10' W 123°56'0 0.0
2017-Jan-06 03:33N 49°10' W 123°56'0 0.0
2017-Jan-06 02:33N 49°10' W 123°56'0 0.0
2017-Jan-06 01:33N 49°10' W 123°56'0 0.0
2017-Jan-06 00:32N 49°10' W 123°56'0 0.0
2017-Jan-05 23:33N 49°10' W 123°56'0 0.0
2017-Jan-05 22:33N 49°10' W 123°56'0 0.0
2017-Jan-05 21:33N 49°10' W 123°56'0 0.0
2017-Jan-05 20:33N 49°10' W 123°56'0 0.0
2017-Jan-05 19:30N 49°10' W 123°56'0 0.0
2017-Jan-05 18:33N 49°10' W 123°56'0 0.5
2017-Jan-05 17:32N 49°10' W 123°55'3 3.0
2017-Jan-05 16:26N 49°13' W 123°56'0 0.3
2017-Jan-05 15:30N 49°13' W 123°56'1 1.1
2017-Jan-05 14:27N 49°14' W 123°57'0 0.0
2017-Jan-05 13:33N 49°14' W 123°57'0 0.0
2017-Jan-05 12:31N 49°14' W 123°57'0 0.0
2017-Jan-05 11:30N 49°14' W 123°57'0 0.0
2017-Jan-05 10:33N 49°14' W 123°57'0 0.0
2017-Jan-05 09:33N 49°14' W 123°57'2 1.6
2017-Jan-05 08:33N 49°15' W 123°59'3 2.6
2017-Jan-05 07:32N 49°13' W 123°56'1 0.8
2017-Jan-05 06:31N 49°14' W 123°56'0 0.4
2017-Jan-05 05:33N 49°14' W 123°57'4 3.9
2017-Jan-05 04:29N 49°16' W 124°03'4 4.1
2017-Jan-05 03:33N 49°18' W 124°07'1 0.7
2017-Jan-05 02:33N 49°18' W 124°08'0 0.1
2017-Jan-05 01:32N 49°18' W 124°08'0 0.1
2017-Jan-05 00:33N 49°18' W 124°08'4 3.8
2017-Jan-04 23:33N 49°16' W 124°04'4 4.0
2017-Jan-04 22:33N 49°18' W 124°09'4 4.1
2017-Jan-04 21:33N 49°20' W 124°15'4 4.5
2017-Jan-04 20:32N 49°21' W 124°21'0 0.0
2017-Jan-04 19:29N 49°21' W 124°21'0 0.0
2017-Jan-04 18:33N 49°21' W 124°21'0 0.0
2017-Jan-04 17:33N 49°21' W 124°21'0 0.0
2017-Jan-04 16:32N 49°21' W 124°21'0 0.0
2017-Jan-04 11:13N 49°21' W 124°21'0 0.0
2017-Jan-04 10:33N 49°21' W 124°21'0 0.0
2017-Jan-04 09:30N 49°21' W 124°21'4 3.8
2017-Jan-04 08:30N 49°20' W 124°16'7 7.4
2017-Jan-04 07:31N 49°17' W 124°06'0 0.3
2017-Jan-04 06:32N 49°17' W 124°06'0 0.2
2017-Jan-04 05:33N 49°17' W 124°06'2 2.3
2017-Jan-04 04:33N 49°18' W 124°09'0 0.3
2017-Jan-04 03:33N 49°18' W 124°08'0 0.3
2017-Jan-04 02:32N 49°18' W 124°08'5 4.9
2017-Jan-04 01:32N 49°20' W 124°15'  
Track history (hours):
 
Tides and Currents Weather Stations Pressure Air Temp Water Temp Dewpoint Dewpoint Depression Visibility Wind Speed Wind Dir Waves Ship Positions

Western King

Last reported at 2017-Jan-13 23:33 UTC. Time now 2017-Jan-17 13:05 UTC.
Position N 49°56' W 125°09'.

Length 23 m; draft 3.8 m.

Type: Fishing. MMSI: 316003779.

Date/timePositionNaut miles runAvg speedWind from/ knotsBaromVisibWave heightAir tempDewpointWater temp
2017-Jan-13 23:33N 49°56' W 125°09'9 8.8
2017-Jan-13 22:33N 49°50' W 124°59'9 8.7
2017-Jan-13 21:33N 49°44' W 124°50'9 8.9
2017-Jan-13 20:33N 49°37' W 124°41'28 2.7
2017-Jan-13 10:06N 49°19' W 124°07'23 9.0
2017-Jan-13 07:31N 49°10' W 123°34'8 8.6
2017-Jan-13 06:33N 49°07' W 123°23'7 3.7
2017-Jan-13 04:32N 49°07' W 123°12'0 0.0
2017-Jan-13 03:33N 49°07' W 123°12'0 0.0
2017-Jan-13 02:31N 49°07' W 123°12'0 0.0
2017-Jan-13 01:23N 49°07' W 123°12'0 0.0
2017-Jan-13 00:33N 49°07' W 123°12'0 0.0
2017-Jan-12 23:33N 49°07' W 123°12'0 0.2
2017-Jan-12 22:33N 49°07' W 123°11'0 0.0
2017-Jan-12 21:33N 49°07' W 123°11'0 0.0
2017-Jan-12 20:33N 49°07' W 123°11'0 0.0
2017-Jan-12 19:33N 49°07' W 123°11'0 0.0
2017-Jan-12 18:33N 49°07' W 123°11'0 0.0
2017-Jan-12 17:33N 49°07' W 123°11'0 0.0
2017-Jan-12 16:33N 49°07' W 123°11'0 0.0
2017-Jan-12 15:33N 49°07' W 123°11'0 0.0
2017-Jan-12 14:33N 49°07' W 123°11'0 0.0
2017-Jan-12 13:33N 49°07' W 123°11'0 0.0
2017-Jan-12 12:33N 49°07' W 123°11'0 0.0
2017-Jan-12 11:33N 49°07' W 123°11'4 3.9
2017-Jan-12 10:33N 49°07' W 123°17'7 7.2
2017-Jan-12 09:33N 49°08' W 123°28'8 7.8
2017-Jan-12 08:33N 49°10' W 123°39'8 7.8
2017-Jan-12 07:34N 49°12' W 123°51'3 3.4
2017-Jan-12 06:33N 49°09' W 123°51'0 0.3
2017-Jan-12 05:33N 49°09' W 123°51'0 0.3
2017-Jan-12 04:34N 49°09' W 123°52'0 0.2
2017-Jan-12 03:30N 49°09' W 123°52'0 0.2
2017-Jan-12 02:32N 49°09' W 123°52'0 0.4
2017-Jan-12 01:29N 49°09' W 123°52'0 0.2
2017-Jan-12 00:33N 49°10' W 123°52'7 5.3
2017-Jan-11 23:19N 49°11' W 123°42'7 8.8
2017-Jan-11 22:29N 49°09' W 123°32'9 9.1
2017-Jan-11 21:33N 49°06' W 123°19'6 6.0
2017-Jan-11 20:33N 49°07' W 123°10'0 0.0
2017-Jan-11 19:33N 49°07' W 123°10'1 0.9
2017-Jan-11 18:33N 49°07' W 123°11'0 0.0
2017-Jan-11 17:32N 49°07' W 123°11'0 0.0
2017-Jan-11 16:33N 49°07' W 123°11'0 0.0
2017-Jan-11 15:33N 49°07' W 123°11'0 0.0
2017-Jan-11 14:33N 49°07' W 123°11'0 0.0
2017-Jan-11 13:33N 49°07' W 123°11'0 0.0
2017-Jan-11 12:33N 49°07' W 123°11'0 0.0
2017-Jan-11 11:33N 49°07' W 123°11'0 0.0
2017-Jan-11 10:33N 49°07' W 123°11'0 0.0
2017-Jan-11 09:33N 49°07' W 123°11'0 0.0
2017-Jan-11 08:33N 49°07' W 123°11'0 0.0
2017-Jan-11 07:33N 49°07' W 123°11'0 0.0
2017-Jan-11 06:33N 49°07' W 123°11'0 0.0
2017-Jan-11 05:33N 49°07' W 123°11'0 0.0
2017-Jan-11 04:33N 49°07' W 123°11'0 0.0
2017-Jan-11 03:33N 49°07' W 123°11'0 0.2
2017-Jan-11 02:33N 49°07' W 123°12'0 0.0
2017-Jan-11 01:34N 49°07' W 123°12'0 0.0
2017-Jan-11 00:34N 49°07' W 123°12'0 0.0
2017-Jan-10 23:34N 49°07' W 123°12'0 0.0
2017-Jan-10 22:34N 49°07' W 123°12'0 0.2
2017-Jan-10 21:34N 49°07' W 123°11'0 0.0
2017-Jan-10 20:33N 49°07' W 123°11'0 0.0
2017-Jan-10 19:32N 49°07' W 123°11'0 0.0
2017-Jan-10 18:33N 49°07' W 123°11'0 0.0
2017-Jan-10 17:32N 49°07' W 123°11'0 0.0
2017-Jan-10 16:33N 49°07' W 123°11'0 0.0
2017-Jan-10 15:33N 49°07' W 123°11'0 0.0
2017-Jan-10 14:33N 49°07' W 123°11'0 0.0
2017-Jan-10 13:33N 49°07' W 123°11'0 0.0
2017-Jan-10 12:33N 49°07' W 123°11'3 3.2
2017-Jan-10 11:33N 49°07' W 123°16'7 7.4
2017-Jan-10 10:33N 49°09' W 123°27'7 7.5
2017-Jan-10 09:33N 49°10' W 123°38'8 7.6
2017-Jan-10 08:33N 49°12' W 123°50'4 3.5
2017-Jan-10 07:32N 49°09' W 123°51'0 0.4
2017-Jan-10 06:31N 49°09' W 123°52'0 0.1
2017-Jan-10 05:32N 49°09' W 123°52'4 4.1
2017-Jan-10 04:33N 49°12' W 123°48'9 9.1
2017-Jan-10 03:32N 49°09' W 123°35'9 9.0
2017-Jan-10 02:33N 49°07' W 123°22'8 7.6
2017-Jan-10 01:32N 49°07' W 123°10'1 1.0
2017-Jan-10 00:31N 49°07' W 123°12'0 0.0
2017-Jan-09 23:31N 49°07' W 123°12'0 0.0
2017-Jan-09 22:33N 49°07' W 123°12'0 0.0
2017-Jan-09 21:33N 49°07' W 123°12'0 0.1
2017-Jan-09 20:33N 49°07' W 123°11'0 0.0
2017-Jan-09 19:34N 49°07' W 123°11'0 0.0
2017-Jan-09 16:33N 49°07' W 123°11'0 0.0
2017-Jan-09 15:33N 49°07' W 123°11'0 0.0
2017-Jan-09 14:33N 49°07' W 123°11'5 5.5
2017-Jan-09 13:33N 49°06' W 123°20'8 8.3
2017-Jan-09 12:32N 49°09' W 123°32'8 7.6
2017-Jan-09 11:29N 49°11' W 123°44'6 6.0
2017-Jan-09 10:30N 49°10' W 123°53'1 1.2
2017-Jan-09 09:33N 49°09' W 123°52'0 0.2
2017-Jan-09 08:24N 49°09' W 123°51'0 0.3
2017-Jan-09 07:29N 49°09' W 123°51'0 0.2
2017-Jan-09 06:33N 49°09' W 123°51'1 0.6
2017-Jan-09 05:30N 49°09' W 123°52'0 0.4
2017-Jan-09 04:28N 49°09' W 123°52'0 0.3
2017-Jan-09 03:32N 49°09' W 123°51'0 0.2
2017-Jan-09 02:31N 49°09' W 123°51'0 0.4
2017-Jan-09 01:33N 49°09' W 123°51'5 4.6
2017-Jan-09 00:33N 49°13' W 123°55'2 2.2
2017-Jan-08 23:33N 49°13' W 123°52'3 2.7
2017-Jan-08 22:32N 49°12' W 123°48'1 0.8
2017-Jan-08 21:33N 49°12' W 123°48'4 4.2
2017-Jan-08 20:33N 49°10' W 123°54'1 0.1
2017-Jan-08 01:14N 49°10' W 123°56'0 0.0
2017-Jan-08 00:17N 49°10' W 123°56'0 0.0
2017-Jan-07 23:25N 49°10' W 123°56'0 0.0
2017-Jan-07 22:31N 49°10' W 123°56'0 0.0
2017-Jan-07 21:05N 49°10' W 123°56'0 0.0
2017-Jan-07 19:31N 49°10' W 123°56'0 0.0
2017-Jan-07 18:14N 49°10' W 123°56'0 0.0
2017-Jan-07 17:30N 49°10' W 123°56'0 0.0
2017-Jan-07 16:33N 49°10' W 123°56'0 0.0
2017-Jan-07 15:29N 49°10' W 123°56'0 0.0
2017-Jan-07 14:31N 49°10' W 123°56'0 0.0
2017-Jan-07 13:29N 49°10' W 123°56'0 0.0
2017-Jan-07 12:33N 49°10' W 123°56'0 0.0
2017-Jan-07 11:32N 49°10' W 123°56'0 0.0
2017-Jan-07 10:20N 49°10' W 123°56'0 0.0
2017-Jan-07 09:32N 49°10' W 123°56'0 0.0
2017-Jan-07 08:23N 49°10' W 123°56'0 0.0
2017-Jan-07 07:33N 49°10' W 123°56'0 0.0
2017-Jan-07 06:33N 49°10' W 123°56'0 0.0
2017-Jan-07 05:28N 49°10' W 123°56'0 0.0
2017-Jan-07 04:13N 49°10' W 123°56'0 0.0
2017-Jan-07 03:31N 49°10' W 123°56'0 0.0
2017-Jan-07 02:32N 49°10' W 123°56'0 0.0
2017-Jan-07 00:32N 49°10' W 123°56'0 0.0
2017-Jan-06 23:16N 49°10' W 123°56'0 0.0
2017-Jan-06 22:16N 49°10' W 123°56'0 0.0
2017-Jan-06 21:23N 49°10' W 123°56'0 0.0
2017-Jan-06 20:30N 49°10' W 123°56'0 0.0
2017-Jan-06 19:31N 49°10' W 123°56'0 0.0
2017-Jan-06 18:33N 49°10' W 123°56'0 0.0
2017-Jan-06 17:33N 49°10' W 123°56'0 0.0
2017-Jan-06 16:32N 49°10' W 123°56'0 0.0
2017-Jan-06 15:32N 49°10' W 123°56'0 0.0
2017-Jan-06 14:32N 49°10' W 123°56'0 0.0
2017-Jan-06 13:32N 49°10' W 123°56'0 0.0
2017-Jan-06 12:33N 49°10' W 123°56'0 0.0
2017-Jan-06 11:33N 49°10' W 123°56'0 0.0
2017-Jan-06 10:33N 49°10' W 123°56'0 0.0
2017-Jan-06 09:33N 49°10' W 123°56'0 0.0
2017-Jan-06 08:32N 49°10' W 123°56'0 0.0
2017-Jan-06 07:33N 49°10' W 123°56'0 0.0
2017-Jan-06 06:33N 49°10' W 123°56'0 0.0
2017-Jan-06 05:33N 49°10' W 123°56'0 0.0
2017-Jan-06 04:33N 49°10' W 123°56'0 0.0
2017-Jan-06 03:33N 49°10' W 123°56'0 0.0
2017-Jan-06 02:33N 49°10' W 123°56'0 0.0
2017-Jan-06 01:33N 49°10' W 123°56'0 0.0
2017-Jan-06 00:32N 49°10' W 123°56'0 0.0
2017-Jan-05 23:33N 49°10' W 123°56'0 0.0
2017-Jan-05 22:33N 49°10' W 123°56'0 0.0
2017-Jan-05 21:33N 49°10' W 123°56'0 0.0
2017-Jan-05 20:33N 49°10' W 123°56'0 0.0
2017-Jan-05 19:30N 49°10' W 123°56'0 0.0
2017-Jan-05 18:33N 49°10' W 123°56'0 0.5
2017-Jan-05 17:32N 49°10' W 123°55'3 3.0
2017-Jan-05 16:26N 49°13' W 123°56'0 0.3
2017-Jan-05 15:30N 49°13' W 123°56'1 1.1
2017-Jan-05 14:27N 49°14' W 123°57'0 0.0
2017-Jan-05 13:33N 49°14' W 123°57'0 0.0
2017-Jan-05 12:31N 49°14' W 123°57'0 0.0
2017-Jan-05 11:30N 49°14' W 123°57'0 0.0
2017-Jan-05 10:33N 49°14' W 123°57'0 0.0
2017-Jan-05 09:33N 49°14' W 123°57'2 1.6
2017-Jan-05 08:33N 49°15' W 123°59'3 2.6
2017-Jan-05 07:32N 49°13' W 123°56'1 0.8
2017-Jan-05 06:31N 49°14' W 123°56'0 0.4
2017-Jan-05 05:33N 49°14' W 123°57'4 3.9
2017-Jan-05 04:29N 49°16' W 124°03'4 4.1
2017-Jan-05 03:33N 49°18' W 124°07'1 0.7
2017-Jan-05 02:33N 49°18' W 124°08'0 0.1
2017-Jan-05 01:32N 49°18' W 124°08'0 0.1
2017-Jan-05 00:33N 49°18' W 124°08'4 3.8
2017-Jan-04 23:33N 49°16' W 124°04'4 4.0
2017-Jan-04 22:33N 49°18' W 124°09'4 4.1
2017-Jan-04 21:33N 49°20' W 124°15'4 4.5
2017-Jan-04 20:32N 49°21' W 124°21'0 0.0
2017-Jan-04 19:29N 49°21' W 124°21'0 0.0
2017-Jan-04 18:33N 49°21' W 124°21'0 0.0
2017-Jan-04 17:33N 49°21' W 124°21'0 0.0
2017-Jan-04 16:32N 49°21' W 124°21'0 0.0
2017-Jan-04 11:13N 49°21' W 124°21'0 0.0
2017-Jan-04 10:33N 49°21' W 124°21'0 0.0
2017-Jan-04 09:30N 49°21' W 124°21'4 3.8
2017-Jan-04 08:30N 49°20' W 124°16'7 7.4
2017-Jan-04 07:31N 49°17' W 124°06'0 0.3
2017-Jan-04 06:32N 49°17' W 124°06'0 0.2
2017-Jan-04 05:33N 49°17' W 124°06'2 2.3
2017-Jan-04 04:33N 49°18' W 124°09'0 0.3
2017-Jan-04 03:33N 49°18' W 124°08'0 0.3
2017-Jan-04 02:32N 49°18' W 124°08'5 4.9
2017-Jan-04 01:32N 49°20' W 124°15'  

Dump ship's entire track history